• Join FlightAware (Why Join?)
  • Login
  • US Flag 
01:08PM EDT


 

Airport Tracker/Info


-or-


 

Live Flight TrackerFlight Track Log ✈ FIN666 ✈ 13-Feb-2014 ✈ EKCH / CPH - EFHK / HEL

Flight Track Log - Related Links

Times and Time Zones

All times are in EST time to prevent confusion due to time zone crossing. See the FIN666 flight status page for this flight to view local times or setup timezone preferences in your user account.

Time Position Orientation Groundspeed Altitude Reporting Facility
EST Latitude Longitude Course Direction KTS MPH feet Rate Location/Type
07:19AM 55.9251 13.2931 49° Northeast  Level Estimated
07:20AM 56.0014 13.4539 50° Northeast  Level Estimated
07:21AM 56.0774 13.6154 50° Northeast  Level Estimated
07:22AM 56.1533 13.7776 50° Northeast  Level Estimated
07:23AM 56.2301 13.9428 50° Northeast  Level Estimated
07:24AM 56.3066 14.1086 50° Northeast  Level Estimated
07:25AM 56.3829 14.2752 50° Northeast  Level Estimated
07:26AM 56.4590 14.4424 50° Northeast  Level Estimated
07:27AM 56.5349 14.6102 51° Northeast  Level Estimated
07:28AM 56.6105 14.7788 51° Northeast  Level Estimated
07:29AM 56.6860 14.9480 51° Northeast  Level Estimated
07:30AM 56.7612 15.1179 51° Northeast  Level Estimated
07:31AM 56.8361 15.2884 51° Northeast  Level Estimated
07:32AM 56.9108 15.4597 51° Northeast  Level Estimated
07:33AM 56.9853 15.6316 51° Northeast  Level Estimated
07:34AM 57.0596 15.8043 52° Northeast  Level Estimated
07:35AM 57.1336 15.9776 52° Northeast  Level Estimated
07:36AM 57.2074 16.1516 52° Northeast  Level Estimated
07:37AM 57.2809 16.3263 52° Northeast  Level Estimated
07:38AM 57.3542 16.5017 52° Northeast  Level Estimated
07:39AM 57.4272 16.6778 52° Northeast  Level Estimated
07:40AM 57.5000 16.8547 52° Northeast  Level Estimated
07:41AM 57.5726 17.0322 53° Northeast  Level Estimated
07:42AM 57.6449 17.2104 53° Northeast  Level Estimated
07:43AM 57.7169 17.3893 53° Northeast  Level Estimated
07:44AM 57.7887 17.5690 53° Northeast  Level Estimated
07:45AM 57.8602 17.7493 53° Northeast  Level Estimated
07:46AM 57.9315 17.9304 53° Northeast  Level Estimated
07:47AM 58.0025 18.1122 54° Northeast  Level Estimated
07:48AM 58.0733 18.2948 54° Northeast  Level Estimated
07:49AM 58.1438 18.4780 54° Northeast  Level Estimated
07:50AM 58.2141 18.6620 54° Northeast  Level Estimated
07:51AM 58.2840 18.8467 54° Northeast  Level Estimated
07:52AM 58.3537 19.0321 54° Northeast  Level Estimated
07:53AM 58.4232 19.2183 54° Northeast  Level Estimated
07:54AM 58.4923 19.4052 55° Northeast  Level Estimated
07:55AM 58.5612 19.5928 55° Northeast  Level Estimated
07:56AM 58.6298 19.7812 55° Northeast  Level Estimated
07:57AM 58.6982 19.9703 55° Northeast  Level Estimated
07:58AM 58.7662 20.1601 55° Northeast  Level Estimated
07:59AM 58.8340 20.3507 55° Northeast  Level Estimated
08:00AM 58.9015 20.5421 56° Northeast  Level Estimated
08:01AM 58.9687 20.7341 56° Northeast  Level Estimated
08:02AM 59.0357 20.9270 56° Northeast  Level Estimated
08:03AM 59.1023 21.1206 56° Northeast  Level Estimated
08:04AM 59.1687 21.3149 56° Northeast  Level Estimated
08:05AM 59.2347 21.5100 56° Northeast  Level Estimated
08:06AM 59.3005 21.7059 57° Northeast  Level Estimated
08:07AM 59.3660 21.9025 57° Northeast  Level Estimated
08:08AM 59.4311 22.0998 57° Northeast  Level Estimated
08:09AM 59.4960 22.2980 57° Northeast  Level Estimated
08:10AM 59.5606 22.4968 57° Northeast  Level Estimated
08:11AM 59.6249 22.6965 57° Northeast  Level Estimated
08:12AM 59.6889 22.8969 58° Northeast  Level Estimated
08:13AM 59.7525 23.0981 58° Northeast  Level Estimated
08:14AM 59.8159 23.3000 58° Northeast  Level Estimated
08:15AM 59.8789 23.5027 58° Northeast  Level Estimated
08:16AM 59.9417 23.7062 58° Northeast  Level Estimated
08:17AM 60.0041 23.9105 58° Northeast  Level Estimated
08:18AM 60.0662 24.1155 59° Northeast  Level Estimated
08:19AM 60.1280 24.3213 59° Northeast  Level Estimated
08:20AM 60.1894 24.5278 59° Northeast  Level Estimated
08:21AM 60.2506 24.7352 59° Northeast  Level Estimated
08:22AM 60.3114 24.9433 59° Northeast  Level Estimated
08:23AM 60.3172 24.9633 60° Northeast  Level Estimated
08:24AM 60.3172 24.9633 37° Northeast  Level Estimated
08:25AM 60.3172 24.9633 37° Northeast  Level Estimated
08:26AM 60.3172 24.9633 37° Northeast  Level Estimated
08:27AM 60.3172 24.9633 37° Northeast  Level Estimated
08:28AM 60.3172 24.9633 37° Northeast  Level Estimated
08:29AM 60.3172 24.9633 37° Northeast  Level Estimated
08:30AM 60.3172 24.9633 37° Northeast  Level Estimated
08:31AM 60.3172 24.9633 37° Northeast  Level Estimated
08:32AM 60.3172 24.9633 37° Northeast  Level Estimated